»·PEaware :: SWA232 KABQ-KSLC

SWA232 :: KABQ-KSLC

FLIGHT INFORMATION

Flight Status: Arrived
Operator:
Southwest Airlines
More flights by this operator :: More flights under this callsign
Pilot: Steve F. (26981)
Aircraft: BOEING 737-800
(B738)
More flights by this aircraft type
Origin: KABQ Albuquerque Intl Sunport
United States
Destination: KSLC Salt Lake City Intl
United States
More flights between these airports :: More routes between these airports
Route: +LARGO3 RSK JNC HELPR LEEHY5
File this flight plan on PilotEdge
Remarks:
Altitude:
(Current/Filed)
38,000ft
Speed:
(Current/Filed)
430kts
Departed: 22-May-20 07:37 PM
Arrived: 22-May-20 08:55 PM
Distance/Time
Traveled:
428nm/1:17
Distance/Time
To Go:
Arrived

Flight Plot

Page will automatically refresh every two minutes.


Map Options




Map Legend


Flown Route
Filed Route
Departure Airport
Arrival Airport
Navaid (VOR, NDB)
Fix

Horizontal Profiles

Position Reports

Time Latitude Longitude Heading Altitude Ground
Speed
22-May-20 19:20 35.046886 -106.614411 357 5363ft 0kts
22-May-20 19:21 35.046886 -106.614411 357 5363ft 0kts
22-May-20 19:22 35.046886 -106.614411 357 5363ft 0kts
22-May-20 19:23 35.046886 -106.614411 357 5363ft 0kts
22-May-20 19:24 35.046886 -106.614411 357 5363ft 0kts
22-May-20 19:25 35.046886 -106.614411 357 5363ft 0kts
22-May-20 19:26 35.046886 -106.614411 357 5363ft 0kts
22-May-20 19:27 35.046886 -106.614411 357 5363ft 0kts
22-May-20 19:28 35.046886 -106.614411 357 5363ft 0kts
22-May-20 19:29 35.046886 -106.614411 357 5363ft 0kts
22-May-20 19:30 35.046365 -106.614083 302 5363ft 2kts
22-May-20 19:31 35.046265 -106.613672 267 5363ft 0kts
22-May-20 19:32 35.046265 -106.613674 267 5363ft 0kts
22-May-20 19:33 35.046008 -106.614000 201 5363ft 2kts
22-May-20 19:34 35.045500 -106.616176 271 5363ft 11kts
22-May-20 19:35 35.045566 -106.620362 272 5363ft 8kts
22-May-20 19:35 35.045036 -106.621294 182 5363ft 0kts
22-May-20 19:37 35.044328 -106.618954 91 5363ft 50kts
22-May-20 19:37 35.044018 -106.582358 92 5622ft 190kts
22-May-20 19:38 35.045633 -106.512673 91 8063ft 232kts
22-May-20 19:39 35.060662 -106.423300 59 9468ft 314kts
22-May-20 19:40 35.129832 -106.364099 355 12497ft 325kts
22-May-20 19:41 35.216500 -106.412969 327 14048ft 378kts
22-May-20 19:42 35.311203 -106.477494 327 16630ft 395kts
22-May-20 19:43 35.409183 -106.544170 327 19141ft 408kts
22-May-20 19:44 35.509618 -106.612500 326 21465ft 418kts
22-May-20 19:45 35.612522 -106.682689 326 23457ft 428kts
22-May-20 19:46 35.717644 -106.754706 325 25272ft 437kts
22-May-20 19:47 35.824940 -106.828296 325 26904ft 445kts
22-May-20 19:48 35.933900 -106.903551 324 28343ft 452kts
22-May-20 19:49 36.036195 -106.992016 308 29768ft 442kts
22-May-20 19:50 36.113904 -107.107151 303 31509ft 432kts
22-May-20 19:51 36.188273 -107.222021 302 33153ft 424kts
22-May-20 19:52 36.261766 -107.335731 302 34611ft 420kts
22-May-20 19:53 36.334132 -107.447808 302 35912ft 415kts
22-May-20 19:54 36.405956 -107.559706 302 37118ft 411kts
22-May-20 19:55 36.476803 -107.670523 301 37960ft 412kts
22-May-20 19:56 36.547525 -107.781524 301 37949ft 408kts
22-May-20 19:57 36.618534 -107.892979 301 37931ft 409kts
22-May-20 19:58 36.688867 -108.004362 301 37917ft 410kts
22-May-20 19:59 36.773186 -108.101528 331 37907ft 440kts
22-May-20 20:00 36.893623 -108.140959 339 37910ft 449kts
22-May-20 20:01 37.015574 -108.176857 339 37925ft 450kts
22-May-20 20:02 37.137490 -108.212643 339 37945ft 450kts
22-May-20 20:03 37.259715 -108.248554 339 37957ft 451kts
22-May-20 20:04 37.382138 -108.284681 340 37966ft 451kts
22-May-20 20:05 37.504383 -108.320886 340 37973ft 451kts
22-May-20 20:06 37.626339 -108.357131 340 37988ft 451kts
22-May-20 20:07 37.749035 -108.393721 340 38006ft 452kts
22-May-20 20:08 37.871416 -108.430341 340 38023ft 452kts
22-May-20 20:09 37.994030 -108.467157 340 38014ft 452kts
22-May-20 20:10 38.116524 -108.504066 340 37988ft 453kts
22-May-20 20:11 38.239439 -108.541228 340 37968ft 454kts
22-May-20 20:12 38.362393 -108.578533 340 37938ft 454kts
22-May-20 20:13 38.485536 -108.616024 340 37903ft 455kts
22-May-20 20:14 38.608623 -108.653634 340 37845ft 456kts
22-May-20 20:15 38.732224 -108.691533 340 37817ft 458kts
22-May-20 20:16 38.856145 -108.729557 340 37796ft 457kts
22-May-20 20:17 38.978606 -108.767459 339 37787ft 452kts
22-May-20 20:18 39.078555 -108.847103 296 37788ft 417kts
22-May-20 20:19 39.133816 -108.977594 292 37778ft 414kts
22-May-20 20:20 39.187228 -109.109708 292 37774ft 415kts
22-May-20 20:21 39.240326 -109.241434 292 37772ft 415kts
22-May-20 20:22 39.293656 -109.374069 291 37770ft 416kts
22-May-20 20:23 39.346546 -109.506704 291 37769ft 416kts
22-May-20 20:24 39.399366 -109.639909 291 37768ft 417kts
22-May-20 20:25 39.452306 -109.774045 290 36567ft 422kts
22-May-20 20:26 39.504506 -109.906935 289 34047ft 410kts
22-May-20 20:27 39.557578 -110.042717 290 29207ft 443kts
22-May-20 20:28 39.613710 -110.186698 291 26046ft 441kts
22-May-20 20:29 39.667773 -110.325729 290 23918ft 418kts
22-May-20 20:30 39.720051 -110.461763 290 23795ft 425kts
22-May-20 20:31 39.772736 -110.599217 290 23794ft 424kts
22-May-20 20:32 39.825041 -110.736541 290 22963ft 422kts
22-May-20 20:33 39.876270 -110.871793 290 21356ft 413kts
22-May-20 20:34 39.926868 -111.003843 290 19756ft 402kts
22-May-20 20:35 39.975709 -111.133712 289 18311ft 394kts
22-May-20 20:36 40.023603 -111.261706 289 17112ft 391kts
22-May-20 20:37 40.070928 -111.387877 289 15970ft 379kts
22-May-20 20:38 40.113298 -111.502039 288 15901ft 321kts
22-May-20 20:39 40.150949 -111.603638 287 15923ft 311kts
22-May-20 20:40 40.193970 -111.702872 302 15929ft 324kts
22-May-20 20:41 40.257295 -111.787639 306 15417ft 320kts
22-May-20 20:42 40.323772 -111.865553 315 13501ft 321kts
22-May-20 20:43 40.394367 -111.927023 331 12779ft 288kts
22-May-20 20:44 40.409481 -111.997919 213 11659ft 216kts
22-May-20 20:45 40.364130 -111.960160 90 10008ft 260kts
22-May-20 20:46 40.414216 -111.913986 346 9077ft 232kts
22-May-20 20:47 40.474573 -111.936886 347 8986ft 221kts
22-May-20 20:48 40.533020 -111.945097 353 8960ft 211kts
22-May-20 20:49 40.592012 -111.951928 353 7831ft 207kts
22-May-20 20:50 40.648786 -111.958481 353 6731ft 198kts
22-May-20 20:51 40.699328 -111.964321 353 5753ft 161kts
22-May-20 20:52 40.742064 -111.969209 351 4911ft 155kts
22-May-20 20:53 40.783399 -111.974060 354 4235ft 123kts
22-May-20 20:54 40.792069 -111.976351 266 4235ft 4kts
22-May-20 20:55 40.790665 -111.977083 175 4235ft 18kts
22-May-20 20:56 40.789103 -111.978308 193 4235ft 0kts

Navigation Log

Ident Type
Flight plan parsing failed, navigation log unavailable